Time;durP1;ratioP1;P1;durP2;ratioP2;P2;SDS_P1;SDS_P2;PMS_P1;PMS_P2;Temp;Humidity;BMP_temperature;BMP_pressure;BME280_temperature;BME280_humidity;BME280_pressure;Samples;Min_cycle;Max_cycle;Signal;HPM_P1;HPM_P2
2022/07/30 00:02:21;;;;;;;9.70;5.50;;;16.20;99.90;;;;;;5019901;28;20189;-77
2022/07/30 00:04:47;;;;;;;9.90;5.70;;;16.10;99.90;;;;;;5022166;28;20670;-77
2022/07/30 00:07:13;;;;;;;11.60;5.27;;;16.10;99.90;;;;;;5021974;28;20206;-78
2022/07/30 00:09:39;;;;;;;9.37;4.87;;;16.00;99.90;;;;;;5020624;28;20205;-77
2022/07/30 00:12:06;;;;;;;8.67;5.43;;;15.90;99.90;;;;;;5021398;28;20179;-79
2022/07/30 00:14:33;;;;;;;9.77;5.70;;;15.90;99.90;;;;;;5021399;28;20198;-77
2022/07/30 00:17:00;;;;;;;9.77;5.53;;;15.90;99.90;;;;;;5020662;28;20182;-78
2022/07/30 00:19:25;;;;;;;7.93;5.63;;;16.10;99.90;;;;;;5021641;28;20244;-79
2022/07/30 00:21:53;;;;;;;11.70;6.07;;;15.80;99.90;;;;;;5023553;28;20591;-77
2022/07/30 00:24:19;;;;;;;12.27;5.80;;;15.80;99.90;;;;;;5017205;28;20333;-78
2022/07/30 00:26:45;;;;;;;10.97;6.07;;;15.80;99.90;;;;;;5017191;28;20317;-77
2022/07/30 00:29:10;;;;;;;9.70;5.30;;;15.70;99.90;;;;;;5016838;28;20186;-77
2022/07/30 00:31:36;;;;;;;11.27;6.10;;;15.80;99.90;;;;;;5017747;28;20174;-77
2022/07/30 00:34:02;;;;;;;9.77;6.10;;;15.80;99.90;;;;;;5019969;28;20265;-78
2022/07/30 00:36:27;;;;;;;16.37;6.03;;;15.70;99.90;;;;;;5019739;28;20655;-78
2022/07/30 00:38:53;;;;;;;8.37;5.87;;;15.60;99.90;;;;;;5019641;28;20190;-79
2022/07/30 00:41:19;;;;;;;9.90;6.20;;;15.60;99.90;;;;;;5018276;28;20180;-78
2022/07/30 00:43:45;;;;;;;7.50;5.23;;;15.60;99.90;;;;;;5018864;28;20685;-77
2022/07/30 00:46:10;;;;;;;9.67;5.87;;;15.60;99.90;;;;;;5016212;28;20723;-78
2022/07/30 00:48:36;;;;;;;10.53;5.40;;;15.50;99.90;;;;;;5016372;28;20533;-77
2022/07/30 00:51:02;;;;;;;11.13;5.07;;;15.60;99.90;;;;;;5016415;28;20290;-77
2022/07/30 00:53:27;;;;;;;8.30;5.43;;;15.60;99.90;;;;;;5016808;28;20282;-78
2022/07/30 00:55:53;;;;;;;8.60;5.97;;;15.50;99.90;;;;;;5018430;28;20251;-79
2022/07/30 00:58:19;;;;;;;14.47;6.20;;;15.50;99.90;;;;;;5017844;28;20213;-79
2022/07/30 01:00:44;;;;;;;8.20;6.13;;;15.40;99.90;;;;;;5019461;28;20209;-79
2022/07/30 01:03:10;;;;;;;11.13;6.33;;;15.40;99.90;;;;;;5019257;28;20178;-78
2022/07/30 01:05:36;;;;;;;11.43;6.20;;;15.60;99.90;;;;;;5017309;28;20209;-77
2022/07/30 01:08:01;;;;;;;10.30;6.70;;;15.60;99.90;;;;;;5019159;28;20215;-78
2022/07/30 01:10:27;;;;;;;12.27;6.60;;;15.50;99.90;;;;;;5019518;28;20178;-79
2022/07/30 01:12:53;;;;;;;16.10;6.57;;;15.60;99.90;;;;;;5017813;28;20257;-79
2022/07/30 01:15:19;;;;;;;12.53;7.50;;;15.60;99.90;;;;;;5021551;28;20397;-79
2022/07/30 01:17:48;;;;;;;13.13;6.90;;;15.60;99.90;;;;;;5018918;28;20275;-79
2022/07/30 01:20:19;;;;;;;15.50;7.10;;;15.40;99.90;;;;;;5021254;28;20202;-79
2022/07/30 01:22:54;;;;;;;11.70;6.80;;;15.30;99.90;;;;;;5023937;28;20189;-77
2022/07/30 01:25:53;;;;;;;18.37;6.30;;;15.20;99.90;;;;;;5016730;28;20204;-78
2022/07/30 01:28:26;;;;;;;13.83;6.10;;;15.20;99.90;;;;;;5014456;28;20204;-77
2022/07/30 01:30:54;;;;;;;9.93;6.70;;;15.20;99.90;;;;;;5015418;28;20182;-78
2022/07/30 01:33:21;;;;;;;11.00;6.00;;;15.20;99.90;;;;;;5017809;28;20233;-78
2022/07/30 01:35:49;;;;;;;9.10;6.17;;;15.20;99.90;;;;;;5018720;28;20190;-79
2022/07/30 01:38:20;;;;;;;8.00;5.57;;;15.10;99.90;;;;;;5018075;28;20524;-78
2022/07/30 01:40:49;;;;;;;14.63;7.17;;;15.20;99.90;;;;;;5019233;28;20178;-79
2022/07/30 01:43:16;;;;;;;11.93;7.50;;;15.20;99.90;;;;;;5021044;28;20317;-79
2022/07/30 01:45:43;;;;;;;15.10;8.30;;;15.10;99.90;;;;;;5021699;28;20203;-78
2022/07/30 01:48:15;;;;;;;14.97;8.00;;;15.30;99.90;;;;;;5021671;28;20257;-78
2022/07/30 01:50:44;;;;;;;14.73;8.23;;;15.30;99.90;;;;;;5024144;28;20194;-78
2022/07/30 01:53:15;;;;;;;14.10;9.00;;;15.20;99.90;;;;;;5050734;22;20694;-83
2022/07/30 01:55:42;;;;;;;13.53;8.80;;;15.00;99.90;;;;;;5031595;28;20245;-83
2022/07/30 01:58:11;;;;;;;14.77;8.73;;;14.90;99.90;;;;;;5032735;28;20254;-84
2022/07/30 02:00:40;;;;;;;16.27;8.03;;;15.00;99.90;;;;;;5031497;28;20195;-83
2022/07/30 02:03:09;;;;;;;16.50;8.17;;;15.00;99.90;;;;;;5032361;28;20166;-83
2022/07/30 02:05:36;;;;;;;11.87;7.63;;;15.10;99.90;;;;;;5039812;22;20268;-84
2022/07/30 02:08:23;;;;;;;11.13;7.60;;;15.00;99.90;;;;;;5031446;28;20229;-84
2022/07/30 02:10:54;;;;;;;15.00;7.77;;;14.90;99.90;;;;;;5031601;28;20657;-84
2022/07/30 02:13:25;;;;;;;11.20;7.60;;;14.90;99.90;;;;;;5031587;28;20538;-85
2022/07/30 02:15:59;;;;;;;10.43;7.43;;;15.00;99.90;;;;;;5030954;28;20193;-85
2022/07/30 02:18:39;;;;;;;13.47;7.90;;;14.90;99.90;;;;;;5031523;28;20170;-84
2022/07/30 02:21:07;;;;;;;12.87;8.60;;;14.90;99.90;;;;;;5031494;28;20170;-84
2022/07/30 02:23:37;;;;;;;11.80;8.40;;;14.80;99.90;;;;;;5031744;28;20653;-84
2022/07/30 02:26:04;;;;;;;14.10;8.37;;;14.80;99.90;;;;;;5032690;28;20162;-85
2022/07/30 02:28:33;;;;;;;12.23;7.93;;;14.60;99.90;;;;;;5033260;28;20284;-85
2022/07/30 02:31:00;;;;;;;13.93;8.53;;;14.60;99.90;;;;;;5032855;28;20170;-85
2022/07/30 02:33:35;;;;;;;12.47;8.70;;;14.70;99.90;;;;;;5032310;28;20170;-85
2022/07/30 02:36:02;;;;;;;13.03;9.60;;;14.80;99.90;;;;;;5032291;28;20219;-85
2022/07/30 02:38:28;;;;;;;22.30;9.33;;;14.60;99.90;;;;;;5033706;28;20174;-84
2022/07/30 02:41:00;;;;;;;17.37;9.53;;;14.60;99.90;;;;;;5032684;28;20178;-85
2022/07/30 02:43:28;;;;;;;15.00;9.47;;;14.50;99.90;;;;;;5032695;28;20930;-84
2022/07/30 02:45:56;;;;;;;12.37;9.10;;;14.60;99.90;;;;;;5032432;28;20693;-84
2022/07/30 02:48:23;;;;;;;19.37;9.40;;;14.60;99.90;;;;;;5032446;28;20547;-84
2022/07/30 02:50:52;;;;;;;11.40;8.03;;;14.40;99.90;;;;;;5032813;28;20174;-85
2022/07/30 02:53:19;;;;;;;14.97;7.67;;;14.50;99.90;;;;;;5032418;28;20649;-84
2022/07/30 02:55:47;;;;;;;14.30;8.13;;;14.30;99.90;;;;;;5032578;28;20662;-84
2022/07/30 02:58:18;;;;;;;13.93;7.97;;;14.40;99.90;;;;;;5033224;28;20178;-84
2022/07/30 03:00:45;;;;;;;14.43;8.87;;;14.50;99.90;;;;;;5036179;28;20169;-83
2022/07/30 03:03:12;;;;;;;12.40;8.43;;;14.60;99.90;;;;;;5036445;28;20181;-83
2022/07/30 03:05:40;;;;;;;13.07;8.97;;;14.50;99.90;;;;;;5035529;28;20212;-83
2022/07/30 03:08:07;;;;;;;14.13;9.90;;;14.50;99.90;;;;;;5035269;28;20205;-83
2022/07/30 03:10:34;;;;;;;15.60;10.10;;;14.40;99.90;;;;;;5035611;28;20178;-83
2022/07/30 03:13:04;;;;;;;14.77;10.30;;;14.50;99.90;;;;;;5034625;28;20177;-83
2022/07/30 03:15:31;;;;;;;15.20;9.50;;;14.50;99.90;;;;;;5034916;28;20197;-83
2022/07/30 03:17:58;;;;;;;15.50;9.57;;;14.60;99.90;;;;;;5032975;28;20174;-83
2022/07/30 03:20:28;;;;;;;17.20;9.83;;;14.60;99.90;;;;;;5033100;28;20184;-83
2022/07/30 03:22:56;;;;;;;14.53;10.50;;;14.60;99.90;;;;;;5033632;28;20178;-83
2022/07/30 03:25:30;;;;;;;16.27;10.30;;;14.50;99.90;;;;;;5034000;28;20197;-83
2022/07/30 03:27:58;;;;;;;18.93;10.37;;;14.40;99.90;;;;;;5034376;28;20239;-83
2022/07/30 03:30:25;;;;;;;19.80;11.47;;;14.30;99.90;;;;;;5035195;28;20223;-82
2022/07/30 03:32:52;;;;;;;17.43;11.27;;;14.30;99.90;;;;;;5033924;28;20260;-83
2022/07/30 03:35:20;;;;;;;16.80;11.53;;;14.50;99.90;;;;;;5033964;28;20243;-83
2022/07/30 03:37:48;;;;;;;15.63;10.47;;;14.40;99.90;;;;;;5033872;28;20310;-83
2022/07/30 03:40:15;;;;;;;15.07;10.13;;;14.40;99.90;;;;;;5034979;28;20248;-83
2022/07/30 03:42:41;;;;;;;11.33;8.87;;;14.30;99.90;;;;;;5034119;28;20185;-83
2022/07/30 03:45:08;;;;;;;13.80;9.90;;;14.30;99.90;;;;;;5033904;28;20194;-83
2022/07/30 03:47:37;;;;;;;13.70;9.43;;;14.30;99.90;;;;;;5034216;28;20226;-83
2022/07/30 03:50:05;;;;;;;19.97;9.97;;;14.10;99.90;;;;;;5034567;28;20173;-84
2022/07/30 03:52:33;;;;;;;16.20;10.70;;;14.10;99.90;;;;;;5031698;28;20201;-85
2022/07/30 03:54:59;;;;;;;13.27;9.80;;;14.20;99.90;;;;;;5032233;28;20206;-85
2022/07/30 03:57:25;;;;;;;17.77;10.37;;;14.30;99.90;;;;;;5032233;28;20679;-85
2022/07/30 03:59:51;;;;;;;14.93;9.83;;;14.40;99.90;;;;;;5036037;28;20177;-85
2022/07/30 04:02:17;;;;;;;13.97;9.97;;;14.30;99.90;;;;;;5035257;28;20173;-85
2022/07/30 04:04:43;;;;;;;15.40;9.60;;;14.20;99.90;;;;;;5036438;28;20197;-85
2022/07/30 04:07:09;;;;;;;16.27;10.33;;;14.10;99.90;;;;;;5035525;28;20653;-84
2022/07/30 04:09:35;;;;;;;14.63;10.57;;;14.10;99.90;;;;;;5036053;28;20170;-85
2022/07/30 04:12:00;;;;;;;17.40;10.73;;;14.10;99.90;;;;;;5035732;28;20226;-84
2022/07/30 04:14:26;;;;;;;18.40;10.50;;;14.00;99.90;;;;;;5036132;28;20197;-84
2022/07/30 04:17:20;;;;;;;13.40;10.53;;;13.90;99.90;;;;;;5034391;28;20303;-85
2022/07/30 04:19:50;;;;;;;19.90;9.67;;;14.10;99.90;;;;;;5035246;28;20215;-85
2022/07/30 04:22:25;;;;;;;15.37;9.60;;;14.10;99.90;;;;;;5034857;28;20172;-84
2022/07/30 04:24:52;;;;;;;13.17;9.07;;;14.10;99.90;;;;;;5035104;28;20196;-85
2022/07/30 04:27:18;;;;;;;16.23;10.07;;;14.10;99.90;;;;;;5033771;28;20307;-85
2022/07/30 04:29:44;;;;;;;16.10;9.60;;;14.10;99.90;;;;;;5034212;28;20173;-85
2022/07/30 04:32:10;;;;;;;15.30;9.30;;;14.00;99.90;;;;;;5033609;28;20166;-85
2022/07/30 04:34:35;;;;;;;14.37;10.53;;;14.00;99.90;;;;;;5033274;28;20190;-85
2022/07/30 04:37:01;;;;;;;15.30;9.67;;;14.10;99.90;;;;;;5033689;28;20669;-85
2022/07/30 04:39:27;;;;;;;12.30;8.83;;;14.30;99.90;;;;;;5034088;28;20537;-85
2022/07/30 04:41:53;;;;;;;17.47;10.07;;;14.40;99.90;;;;;;5033380;28;20180;-85
2022/07/30 04:44:19;;;;;;;14.83;9.90;;;14.40;99.90;;;;;;5033333;28;20189;-85
2022/07/30 04:46:45;;;;;;;20.13;10.17;;;14.50;99.90;;;;;;5033541;28;20202;-84
2022/07/30 04:49:14;;;;;;;12.47;9.90;;;14.50;99.90;;;;;;5033853;28;20192;-85
2022/07/30 04:51:41;;;;;;;17.77;10.30;;;14.60;99.90;;;;;;5033185;28;20185;-86
2022/07/30 04:54:10;;;;;;;12.33;9.53;;;14.80;99.90;;;;;;5033290;28;20193;-85
2022/07/30 04:56:37;;;;;;;13.33;9.73;;;15.00;99.90;;;;;;5033427;28;20207;-84
2022/07/30 04:59:04;;;;;;;15.00;10.33;;;15.10;99.90;;;;;;5033604;28;20539;-85
2022/07/30 05:01:34;;;;;;;14.37;9.27;;;15.30;99.90;;;;;;5033222;28;20661;-85
2022/07/30 05:04:00;;;;;;;14.63;8.63;;;15.50;99.90;;;;;;5033118;28;20228;-85
2022/07/30 05:06:27;;;;;;;16.57;8.50;;;15.60;99.90;;;;;;5033020;28;20194;-85
2022/07/30 05:08:53;;;;;;;11.40;7.87;;;15.80;99.90;;;;;;5033025;28;20170;-84
2022/07/30 05:11:19;;;;;;;14.33;8.03;;;15.70;99.90;;;;;;5033116;28;20194;-84
2022/07/30 05:13:47;;;;;;;11.97;8.13;;;15.70;99.90;;;;;;5033395;28;20204;-85
2022/07/30 05:16:13;;;;;;;11.20;7.63;;;15.60;99.90;;;;;;5032664;28;20193;-84
2022/07/30 05:18:39;;;;;;;12.10;7.97;;;15.70;99.90;;;;;;5033211;28;20178;-85
2022/07/30 05:21:06;;;;;;;13.00;8.60;;;15.70;99.90;;;;;;5032762;28;20228;-84
2022/07/30 05:23:32;;;;;;;14.90;9.47;;;15.90;99.90;;;;;;5032733;28;20184;-84
2022/07/30 05:25:58;;;;;;;17.90;9.80;;;16.00;99.90;;;;;;5032940;28;20551;-85
2022/07/30 05:28:25;;;;;;;14.27;8.37;;;16.20;99.90;;;;;;5032996;28;20273;-84
2022/07/30 05:30:52;;;;;;;16.97;8.67;;;16.30;99.90;;;;;;5032828;28;20603;-84
2022/07/30 05:33:18;;;;;;;13.40;9.30;;;16.50;99.90;;;;;;5032713;28;20604;-84
2022/07/30 05:35:44;;;;;;;18.67;8.70;;;16.60;99.90;;;;;;5031992;28;20193;-84
2022/07/30 05:38:10;;;;;;;14.57;9.03;;;16.50;99.90;;;;;;5032820;28;20182;-84
2022/07/30 05:40:35;;;;;;;22.60;9.17;;;16.70;99.90;;;;;;5033016;28;20174;-84
2022/07/30 05:43:01;;;;;;;11.10;9.00;;;16.80;99.90;;;;;;5032443;28;20695;-84
2022/07/30 05:45:27;;;;;;;15.10;8.90;;;17.00;99.90;;;;;;5032167;28;20277;-85
2022/07/30 05:47:52;;;;;;;13.40;9.07;;;16.90;99.90;;;;;;5032463;28;20201;-83
2022/07/30 05:50:18;;;;;;;18.47;9.07;;;17.10;99.90;;;;;;5032886;28;20170;-84
2022/07/30 05:52:44;;;;;;;11.93;8.67;;;17.20;99.90;;;;;;5032130;28;20170;-84
2022/07/30 05:55:11;;;;;;;15.60;9.97;;;17.40;99.90;;;;;;5032177;28;20740;-84
2022/07/30 05:57:37;;;;;;;14.13;9.10;;;17.40;99.90;;;;;;5032304;28;20236;-84
2022/07/30 06:00:07;;;;;;;13.00;9.10;;;17.30;99.90;;;;;;5033815;28;20202;-84
2022/07/30 06:02:32;;;;;;;10.67;8.97;;;17.40;99.90;;;;;;5031939;28;20261;-85
2022/07/30 06:04:58;;;;;;;15.60;9.00;;;17.70;99.90;;;;;;5032291;28;20725;-84
2022/07/30 06:07:24;;;;;;;14.03;9.50;;;17.80;99.90;;;;;;5032125;28;20618;-84
2022/07/30 06:09:50;;;;;;;14.07;9.30;;;17.90;99.90;;;;;;5032369;28;20725;-85
2022/07/30 06:12:16;;;;;;;12.30;9.47;;;18.20;99.90;;;;;;5032403;28;20166;-84
2022/07/30 06:14:42;;;;;;;11.47;7.63;;;18.30;99.90;;;;;;5032649;28;20244;-84
2022/07/30 06:17:07;;;;;;;13.40;7.20;;;18.60;99.90;;;;;;5031411;28;20542;-84
2022/07/30 06:19:33;;;;;;;13.00;7.20;;;18.90;99.90;;;;;;5032621;28;20178;-82
2022/07/30 06:21:58;;;;;;;10.20;7.30;;;18.90;99.90;;;;;;5033668;28;20224;-82
2022/07/30 06:24:24;;;;;;;14.73;7.25;;;19.40;99.90;;;;;;5034330;28;20205;-79
2022/07/30 06:26:50;;;;;;;10.30;6.60;;;19.60;99.90;;;;;;5034002;28;20213;-81
2022/07/30 06:29:15;;;;;;;13.35;7.22;;;20.00;99.90;;;;;;5036851;28;20174;-81
2022/07/30 06:31:41;;;;;;;9.63;6.50;;;19.90;99.90;;;;;;5034092;28;20177;-81
2022/07/30 06:34:06;;;;;;;13.32;7.10;;;20.30;99.90;;;;;;5033803;28;20211;-81
2022/07/30 06:36:32;;;;;;;11.50;7.43;;;20.80;99.90;;;;;;5033688;28;20201;-81
2022/07/30 06:38:58;;;;;;;9.68;6.20;;;21.00;99.90;;;;;;5034570;28;20212;-81
2022/07/30 06:41:23;;;;;;;8.23;6.55;;;21.00;99.90;;;;;;5030661;28;20174;-81
2022/07/30 06:43:50;;;;;;;8.75;6.57;;;21.10;99.90;;;;;;5033702;28;20170;-81
2022/07/30 06:46:16;;;;;;;10.45;7.07;;;21.50;99.90;;;;;;5034548;28;20245;-81
2022/07/30 06:48:42;;;;;;;14.20;6.93;;;21.40;99.90;;;;;;5029676;28;20650;-81
2022/07/30 06:51:07;;;;;;;10.90;6.45;;;21.40;99.90;;;;;;5014069;28;20174;-81
2022/07/30 06:53:33;;;;;;;13.35;7.05;;;21.80;99.90;;;;;;5015318;28;20542;-81
2022/07/30 06:55:59;;;;;;;8.10;6.00;;;22.30;99.90;;;;;;5014639;28;20673;-81
2022/07/30 06:58:25;;;;;;;9.95;6.78;;;22.40;99.90;;;;;;5015096;28;20659;-81
2022/07/30 07:00:50;;;;;;;10.10;5.32;;;22.30;99.90;;;;;;5014007;28;20202;-81
2022/07/30 07:03:16;;;;;;;8.57;6.47;;;22.90;99.90;;;;;;5014884;28;20260;-81
2022/07/30 07:05:41;;;;;;;8.02;5.65;;;22.70;99.90;;;;;;5015108;28;20569;-81
2022/07/30 07:08:07;;;;;;;11.25;6.47;;;22.80;99.90;;;;;;5015081;28;20212;-82
2022/07/30 07:10:33;;;;;;;10.85;6.20;;;22.70;99.90;;;;;;5015678;28;20179;-82
2022/07/30 07:12:59;;;;;;;9.73;7.50;;;22.80;99.90;;;;;;5014877;28;20210;-81
2022/07/30 07:15:25;;;;;;;10.13;6.50;;;22.70;99.90;;;;;;5015802;28;20677;-81
2022/07/30 07:17:51;;;;;;;7.53;6.65;;;22.90;99.90;;;;;;5014925;28;20265;-81
2022/07/30 07:20:16;;;;;;;10.73;6.80;;;22.20;99.90;;;;;;5015730;28;20174;-82
2022/07/30 07:22:42;;;;;;;12.52;7.30;;;22.60;99.90;;;;;;5014645;28;20178;-81
2022/07/30 07:25:08;;;;;;;12.18;6.40;;;23.10;99.90;;;;;;5014967;28;20616;-81
2022/07/30 07:27:35;;;;;;;7.55;6.25;;;23.50;99.90;;;;;;5017546;28;20194;-82
2022/07/30 07:30:00;;;;;;;9.52;6.88;;;23.30;99.90;;;;;;5015060;28;20178;-82
2022/07/30 07:32:26;;;;;;;10.73;6.90;;;24.00;99.90;;;;;;5016744;28;20639;-81
2022/07/30 07:34:52;;;;;;;13.50;7.10;;;23.80;99.90;;;;;;5018733;28;20235;-82
2022/07/30 07:37:17;;;;;;;10.15;6.80;;;24.00;99.90;;;;;;5021327;28;20209;-81
2022/07/30 07:39:43;;;;;;;10.57;6.15;;;24.10;99.90;;;;;;5023827;28;20178;-81
2022/07/30 07:42:08;;;;;;;10.98;6.18;;;24.50;99.90;;;;;;5022913;28;20204;-81
2022/07/30 07:44:34;;;;;;;8.85;6.47;;;24.90;99.90;;;;;;5031608;28;20217;-81
2022/07/30 07:47:00;;;;;;;13.25;6.50;;;24.50;99.90;;;;;;5033326;28;20209;-80
2022/07/30 07:49:25;;;;;;;9.32;6.28;;;24.90;99.90;;;;;;5038681;28;20166;-80
2022/07/30 07:51:51;;;;;;;12.93;7.43;;;24.90;99.90;;;;;;5037653;28;20537;-80
2022/07/30 07:54:17;;;;;;;9.95;6.68;;;24.70;99.90;;;;;;5038178;28;20194;-80
2022/07/30 07:56:42;;;;;;;10.10;7.20;;;24.80;99.90;;;;;;5038024;28;20170;-80
2022/07/30 07:59:08;;;;;;;15.18;7.25;;;25.00;99.90;;;;;;5039899;28;20228;-80
2022/07/30 08:01:33;;;;;;;9.77;6.82;;;25.20;99.90;;;;;;5038021;28;20181;-81
2022/07/30 08:03:59;;;;;;;11.82;7.00;;;25.30;99.90;;;;;;5038021;28;20765;-80
2022/07/30 08:06:25;;;;;;;10.10;7.15;;;25.40;99.90;;;;;;5038396;28;20216;-80
2022/07/30 08:08:50;;;;;;;8.43;6.53;;;25.40;99.90;;;;;;5038004;28;20541;-80
2022/07/30 08:11:16;;;;;;;11.43;6.93;;;25.60;99.90;;;;;;5039784;28;20173;-80
2022/07/30 08:13:42;;;;;;;9.50;7.40;;;25.10;99.90;;;;;;5037815;28;20173;-80
2022/07/30 08:16:09;;;;;;;10.63;7.35;;;25.50;99.90;;;;;;5039283;28;20172;-81
2022/07/30 08:18:36;;;;;;;10.40;8.10;;;25.60;99.90;;;;;;5042108;28;20216;-80
2022/07/30 08:21:02;;;;;;;13.73;7.78;;;25.30;99.90;;;;;;5041004;28;20201;-81
2022/07/30 08:23:28;;;;;;;13.98;8.20;;;25.60;99.90;;;;;;5043613;28;20182;-81
2022/07/30 08:25:56;;;;;;;12.07;7.65;;;25.00;99.90;;;;;;5041122;28;20225;-81
2022/07/30 08:28:21;;;;;;;13.25;8.63;;;25.20;99.90;;;;;;5040547;28;20685;-80
2022/07/30 08:30:48;;;;;;;9.38;8.10;;;25.10;99.90;;;;;;5039285;28;20174;-81
2022/07/30 08:33:14;;;;;;;9.43;7.68;;;25.00;99.90;;;;;;5039875;28;20189;-81
2022/07/30 08:35:40;;;;;;;12.10;8.07;;;25.30;99.90;;;;;;5040258;28;20666;-81
2022/07/30 08:38:05;;;;;;;11.25;8.05;;;25.60;99.90;;;;;;5039776;28;20797;-81
2022/07/30 08:40:33;;;;;;;10.05;7.88;;;25.40;99.90;;;;;;5039295;28;20209;-81
2022/07/30 08:43:04;;;;;;;9.77;7.50;;;25.70;99.90;;;;;;5038905;28;20182;-81
2022/07/30 08:45:30;;;;;;;12.38;7.90;;;25.30;99.90;;;;;;5039200;28;20225;-81
2022/07/30 08:47:59;;;;;;;11.60;7.03;;;25.60;99.90;;;;;;5038653;28;20253;-80
2022/07/30 08:50:25;;;;;;;13.00;7.75;;;25.80;99.90;;;;;;5039664;28;20181;-81
2022/07/30 08:52:54;;;;;;;11.93;6.93;;;26.20;99.90;;;;;;5038314;28;20174;-81
2022/07/30 08:55:23;;;;;;;14.43;7.15;;;25.90;99.90;;;;;;5038432;28;20190;-81
2022/07/30 08:57:50;;;;;;;10.70;7.30;;;26.10;99.90;;;;;;5040613;28;20297;-81
2022/07/30 09:00:17;;;;;;;9.52;7.50;;;25.80;99.90;;;;;;5040586;28;20642;-80
2022/07/30 09:02:43;;;;;;;10.23;7.07;;;25.90;99.90;;;;;;5038030;28;20182;-81
2022/07/30 09:05:10;;;;;;;8.00;6.50;;;26.20;99.90;;;;;;5039594;28;20665;-82
2022/07/30 09:07:37;;;;;;;8.65;6.90;;;26.60;99.90;;;;;;5040249;28;20202;-81
2022/07/30 09:10:07;;;;;;;12.75;6.35;;;26.00;99.90;;;;;;5039848;28;20704;-81
2022/07/30 09:12:40;;;;;;;8.55;5.90;;;25.90;99.90;;;;;;5041817;28;20510;-81
2022/07/30 09:15:14;;;;;;;7.55;5.53;;;26.10;99.90;;;;;;5041597;28;20710;-80
2022/07/30 09:17:46;;;;;;;9.07;5.68;;;26.90;99.90;;;;;;5040550;28;20178;-81
2022/07/30 09:20:11;;;;;;;9.38;5.97;;;26.30;99.90;;;;;;5037461;28;20181;-81
2022/07/30 09:22:49;;;;;;;7.60;5.70;;;26.30;99.90;;;;;;5039245;28;20178;-80
2022/07/30 09:25:22;;;;;;;7.50;5.22;;;26.40;99.70;;;;;;5041948;28;20271;-81
2022/07/30 09:27:49;;;;;;;9.45;4.72;;;26.80;99.60;;;;;;5040216;28;20263;-81
2022/07/30 09:30:15;;;;;;;9.15;5.63;;;26.90;99.30;;;;;;5043060;28;20237;-81
2022/07/30 09:32:49;;;;;;;7.72;6.13;;;27.00;98.70;;;;;;5042488;28;20181;-81
2022/07/30 09:35:15;;;;;;;10.27;5.22;;;26.80;99.00;;;;;;5041975;28;20276;-81
2022/07/30 09:37:41;;;;;;;7.45;5.65;;;27.00;99.90;;;;;;5042816;28;20211;-81
2022/07/30 09:40:15;;;;;;;9.18;5.60;;;26.50;99.60;;;;;;5042699;28;20177;-81
2022/07/30 09:42:42;;;;;;;6.50;5.18;;;27.20;98.60;;;;;;5042715;28;20169;-81
2022/07/30 09:45:13;;;;;;;8.60;6.40;;;26.50;99.90;;;;;;5043744;28;20311;-81
2022/07/30 09:47:43;;;;;;;8.57;5.50;;;26.80;99.00;;;;;;5040806;28;20543;-81
2022/07/30 09:50:14;;;;;;;13.15;5.75;;;27.20;99.10;;;;;;5042190;28;20233;-81
2022/07/30 09:52:44;;;;;;;10.65;5.35;;;27.30;99.00;;;;;;5043063;28;20189;-81
2022/07/30 09:55:11;;;;;;;9.48;5.78;;;27.10;99.40;;;;;;5043429;28;20190;-81
2022/07/30 09:57:58;;;;;;;10.20;5.78;;;27.30;98.00;;;;;;5043127;28;20180;-80
2022/07/30 10:00:25;;;;;;;7.05;5.30;;;27.00;98.90;;;;;;5041402;28;20193;-81
2022/07/30 10:02:52;;;;;;;7.15;5.50;;;27.60;98.80;;;;;;5040816;28;20198;-81
2022/07/30 10:05:19;;;;;;;7.15;5.20;;;28.20;98.90;;;;;;5041753;28;20194;-81
2022/07/30 10:07:59;;;;;;;6.25;4.25;;;27.50;97.50;;;;;;5043196;28;20233;-81
2022/07/30 10:10:28;;;;;;;6.97;4.80;;;27.80;97.30;;;;;;5043807;28;20165;-81
2022/07/30 10:12:59;;;;;;;9.65;5.28;;;28.10;97.30;;;;;;5043391;28;20198;-81
2022/07/30 10:15:33;;;;;;;7.10;5.32;;;27.50;96.80;;;;;;5042742;28;20528;-81
2022/07/30 10:17:59;;;;;;;7.35;4.80;;;27.40;97.50;;;;;;5040595;28;20205;-81
2022/07/30 10:20:26;;;;;;;9.70;4.50;;;28.30;97.40;;;;;;5038795;28;20610;-81
2022/07/30 10:22:52;;;;;;;9.75;5.20;;;28.20;97.20;;;;;;5040668;28;20173;-80
2022/07/30 10:25:23;;;;;;;7.68;4.60;;;28.20;97.70;;;;;;5043520;28;20213;-81
2022/07/30 10:27:49;;;;;;;6.03;4.43;;;28.40;95.90;;;;;;5041935;28;20872;-80
2022/07/30 10:30:16;;;;;;;5.93;3.97;;;28.20;95.40;;;;;;5037404;28;20185;-80
2022/07/30 10:32:43;;;;;;;7.03;3.70;;;28.40;95.00;;;;;;5035854;28;20205;-80
2022/07/30 10:35:09;;;;;;;5.43;3.90;;;28.00;96.30;;;;;;5036125;28;20190;-80
2022/07/30 10:37:39;;;;;;;8.38;3.58;;;28.60;95.30;;;;;;5036464;28;20592;-81
2022/07/30 10:40:26;;;;;;;12.07;4.63;;;29.00;92.60;;;;;;5035637;28;20178;-79
2022/07/30 10:43:01;;;;;;;9.07;3.95;;;28.70;94.10;;;;;;5036094;28;20184;-80
2022/07/30 10:46:08;;;;;;;7.05;3.60;;;28.90;94.10;;;;;;5034705;28;20221;-79
2022/07/30 10:48:34;;;;;;;5.38;3.97;;;28.70;94.80;;;;;;5032779;28;20292;-78
2022/07/30 10:51:00;;;;;;;5.90;3.97;;;29.10;94.40;;;;;;5033944;28;20179;-78
2022/07/30 10:53:47;;;;;;;9.40;3.88;;;29.60;92.40;;;;;;5032806;28;20170;-78
2022/07/30 10:56:18;;;;;;;13.30;3.63;;;30.20;91.90;;;;;;5031347;28;20178;-77
2022/07/30 10:59:04;;;;;;;8.13;4.57;;;30.20;91.40;;;;;;5031690;28;20232;-78
2022/07/30 11:01:48;;;;;;;7.78;4.60;;;29.40;92.60;;;;;;5031209;28;20179;-77
2022/07/30 11:04:27;;;;;;;6.35;3.58;;;28.70;93.60;;;;;;5030761;28;20669;-78
2022/07/30 11:07:22;;;;;;;7.28;4.45;;;28.70;92.90;;;;;;5030513;28;20216;-78
2022/07/30 11:09:50;;;;;;;10.10;4.32;;;28.60;92.80;;;;;;5004901;28;20236;-77
2022/07/30 11:12:41;;;;;;;9.60;4.50;;;28.00;92.90;;;;;;5030734;28;20273;-78
2022/07/30 11:15:11;;;;;;;12.70;4.70;;;28.00;93.70;;;;;;5027198;28;20197;-78
2022/07/30 11:17:57;;;;;;;6.60;4.38;;;28.70;93.60;;;;;;5016478;28;20213;-77
2022/07/30 11:20:22;;;;;;;6.45;3.30;;;29.00;93.00;;;;;;5021560;28;20552;-77
2022/07/30 11:22:48;;;;;;;8.57;3.83;;;29.20;93.00;;;;;;5019378;28;20170;-77
2022/07/30 11:25:29;;;;;;;8.05;3.65;;;29.00;92.10;;;;;;5020504;28;20194;-77
2022/07/30 11:27:55;;;;;;;9.05;3.40;;;29.30;91.40;;;;;;5019920;28;20202;-77
2022/07/30 11:30:21;;;;;;;4.60;3.50;;;29.00;91.50;;;;;;5022231;28;20270;-78
2022/07/30 11:32:49;;;;;;;4.93;3.67;;;28.10;91.90;;;;;;5019321;28;20257;-77
2022/07/30 11:35:20;;;;;;;9.30;3.85;;;28.30;92.20;;;;;;5020597;28;20560;-78
2022/07/30 11:38:11;;;;;;;10.00;4.20;;;28.80;90.60;;;;;;5021833;28;20174;-78
2022/07/30 11:40:39;;;;;;;7.72;3.35;;;28.10;91.90;;;;;;5020481;28;20177;-78
2022/07/30 11:43:20;;;;;;;4.20;2.85;;;28.70;91.00;;;;;;5019052;28;20489;-77
2022/07/30 11:46:09;;;;;;;5.78;3.03;;;29.90;88.40;;;;;;5019097;28;20195;-78
2022/07/30 11:48:38;;;;;;;11.02;3.67;;;30.30;87.20;;;;;;5020481;28;20194;-79
2022/07/30 11:51:04;;;;;;;11.60;3.40;;;29.70;88.60;;;;;;5024649;28;20171;-78
2022/07/30 11:53:30;;;;;;;10.23;3.40;;;29.30;88.90;;;;;;5030723;28;20522;-81
2022/07/30 11:55:58;;;;;;;9.43;3.88;;;29.00;86.00;;;;;;5028119;28;20248;-79
2022/07/30 11:58:26;;;;;;;10.43;3.20;;;29.70;88.70;;;;;;5031255;28;20257;-78
2022/07/30 12:00:53;;;;;;;6.47;3.42;;;28.80;90.60;;;;;;5031611;28;20257;-78
2022/07/30 12:03:21;;;;;;;6.32;3.28;;;27.70;90.50;;;;;;5030851;28;20178;-79
2022/07/30 12:05:47;;;;;;;5.50;3.33;;;27.50;90.30;;;;;;5033565;28;20220;-79
2022/07/30 12:08:14;;;;;;;10.30;3.55;;;26.90;90.90;;;;;;5031878;28;20233;-78
2022/07/30 12:10:42;;;;;;;5.60;3.53;;;27.20;90.50;;;;;;5032971;28;20268;-78
2022/07/30 12:13:15;;;;;;;9.15;3.05;;;27.60;90.70;;;;;;5030396;28;20170;-78
2022/07/30 12:15:43;;;;;;;5.07;3.17;;;28.40;90.00;;;;;;5030415;28;20198;-78
2022/07/30 12:18:12;;;;;;;9.68;2.95;;;28.30;89.70;;;;;;5030206;28;20182;-78
2022/07/30 12:20:38;;;;;;;6.72;2.70;;;27.90;88.50;;;;;;5033855;28;20174;-78
2022/07/30 12:23:14;;;;;;;4.00;2.75;;;27.90;86.80;;;;;;5033604;28;20182;-78
2022/07/30 12:25:43;;;;;;;7.22;3.40;;;28.90;85.50;;;;;;5033685;28;20800;-78
2022/07/30 12:28:09;;;;;;;6.63;3.15;;;28.00;87.90;;;;;;5033521;28;20225;-78
2022/07/30 12:30:41;;;;;;;6.30;3.00;;;27.70;88.20;;;;;;5035014;28;20170;-78
2022/07/30 12:33:07;;;;;;;7.75;3.17;;;27.00;90.70;;;;;;5033575;28;20174;-78
2022/07/30 12:35:55;;;;;;;5.57;3.20;;;27.60;90.60;;;;;;5033563;28;20200;-77
2022/07/30 12:38:22;;;;;;;7.28;3.53;;;27.60;91.50;;;;;;5034223;28;20186;-78
2022/07/30 12:41:14;;;;;;;7.20;3.63;;;27.30;91.00;;;;;;5033655;28;20541;-77
2022/07/30 12:43:51;;;;;;;6.85;3.00;;;26.50;91.40;;;;;;5030921;28;20651;-77
2022/07/30 12:46:20;;;;;;;7.28;3.42;;;26.90;91.30;;;;;;5033112;28;20588;-78
2022/07/30 12:48:54;;;;;;;6.93;3.50;;;27.00;91.40;;;;;;5033188;28;20206;-77